createdAt,value
2022-12-07T00:02:25.378Z,6.53
2022-12-07T00:05:31.477Z,6.61
2022-12-07T00:08:37.136Z,7.02
2022-12-07T00:11:42.873Z,6.56
2022-12-07T00:14:48.876Z,6.56
2022-12-07T00:17:54.275Z,6.78
2022-12-07T00:21:03.319Z,6.86
2022-12-07T00:24:09.098Z,6.83
2022-12-07T00:27:14.522Z,6.11
2022-12-07T00:30:19.987Z,6.23
2022-12-07T00:33:25.217Z,5.88
2022-12-07T00:36:30.690Z,5.46
2022-12-07T00:39:36.063Z,6.15
2022-12-07T00:42:41.659Z,7.07
2022-12-07T00:45:47.101Z,6.58
2022-12-07T00:48:53.295Z,6.43
2022-12-07T00:51:58.550Z,6.36
2022-12-07T00:55:04.152Z,6.73
2022-12-07T00:58:09.897Z,6.74
2022-12-07T01:01:15.297Z,6.90
2022-12-07T01:04:20.562Z,7.13
2022-12-07T01:07:25.947Z,6.48
2022-12-07T01:10:32.614Z,6.62
2022-12-07T01:13:37.951Z,6.02
2022-12-07T01:16:43.556Z,6.01
2022-12-07T01:19:48.924Z,6.25
2022-12-07T01:22:54.165Z,6.61
2022-12-07T01:26:00.226Z,6.95
2022-12-07T01:29:08.638Z,7.12
2022-12-07T01:32:14.081Z,7.31
2022-12-07T01:35:19.505Z,7.44
2022-12-07T01:38:24.985Z,7.61
2022-12-07T01:41:31.317Z,7.77
2022-12-07T01:44:50.275Z,7.38
2022-12-07T01:47:57.575Z,6.85
2022-12-07T01:51:06.099Z,7.62
2022-12-07T01:54:12.218Z,8.24
2022-12-07T01:57:18.206Z,7.76
2022-12-07T02:00:23.814Z,7.25
2022-12-07T02:03:31.289Z,7.54
2022-12-07T02:06:37.779Z,7.07
2022-12-07T02:09:43.376Z,7.41
2022-12-07T02:12:49.447Z,7.64
2022-12-07T02:16:01.766Z,8.00
2022-12-07T02:19:21.782Z,7.90
2022-12-07T02:22:36.864Z,7.75
2022-12-07T02:25:55.874Z,8.00
2022-12-07T02:29:12.308Z,7.91
2022-12-07T02:32:18.903Z,7.49
2022-12-07T02:35:27.443Z,6.62
2022-12-07T02:38:37.608Z,6.81
2022-12-07T02:41:46.262Z,7.50
2022-12-07T02:44:52.822Z,7.41
2022-12-07T02:48:00.959Z,8.01
2022-12-07T02:51:06.569Z,7.29
2022-12-07T02:54:13.943Z,7.51
2022-12-07T02:57:27.708Z,7.46
2022-12-07T03:00:35.052Z,7.51
2022-12-07T03:03:42.212Z,7.55
2022-12-07T03:06:51.842Z,7.14
2022-12-07T03:10:02.154Z,6.51
2022-12-07T03:13:11.766Z,7.14
2022-12-07T03:16:18.528Z,7.45
2022-12-07T03:19:24.714Z,7.33
2022-12-07T03:22:31.472Z,7.52
2022-12-07T03:25:38.605Z,8.21
2022-12-07T03:28:46.435Z,7.92
2022-12-07T03:31:55.999Z,6.82
2022-12-07T03:35:03.865Z,6.58
2022-12-07T03:38:15.530Z,6.69
2022-12-07T03:41:24.680Z,6.36
2022-12-07T03:44:30.820Z,6.41
2022-12-07T03:47:40.414Z,6.94
2022-12-07T03:50:49.064Z,6.70
2022-12-07T03:53:57.258Z,6.53
2022-12-07T03:57:03.487Z,6.54
2022-12-07T04:00:10.107Z,6.50
2022-12-07T04:03:18.556Z,6.57
2022-12-07T04:06:23.983Z,7.41
2022-12-07T04:09:29.330Z,7.78
2022-12-07T04:12:34.743Z,7.88
2022-12-07T04:15:39.982Z,8.17
2022-12-07T04:18:45.293Z,8.09
2022-12-07T04:21:52.308Z,7.77
2022-12-07T04:24:58.371Z,7.82
2022-12-07T04:28:03.769Z,8.17
2022-12-07T04:31:09.333Z,7.96
2022-12-07T04:34:15.341Z,8.07
2022-12-07T04:37:20.966Z,8.32
2022-12-07T04:40:26.393Z,8.25
2022-12-07T04:43:31.683Z,8.31
2022-12-07T04:46:37.194Z,8.64
2022-12-07T04:49:42.846Z,8.41
2022-12-07T04:52:48.340Z,8.75
2022-12-07T04:55:53.792Z,8.73
2022-12-07T04:58:59.672Z,9.24
2022-12-07T05:02:05.239Z,8.70
2022-12-07T05:05:11.292Z,7.14
2022-12-07T05:08:17.168Z,7.26
2022-12-07T05:11:36.678Z,8.14
2022-12-07T05:15:12.457Z,8.16
2022-12-07T05:19:11.816Z,8.51
2022-12-07T05:22:17.596Z,8.74
2022-12-07T05:25:41.003Z,8.53
2022-12-07T05:28:53.926Z,8.43
2022-12-07T05:31:59.468Z,8.82
2022-12-07T05:35:06.297Z,9.05
2022-12-07T05:38:11.903Z,8.98
2022-12-07T05:41:36.302Z,8.89
2022-12-07T05:44:42.063Z,8.27
2022-12-07T05:47:47.409Z,8.03
2022-12-07T05:50:53.155Z,7.63
2022-12-07T05:53:58.442Z,7.88
2022-12-07T05:57:03.871Z,7.99
2022-12-07T06:00:10.485Z,7.94
2022-12-07T06:03:17.898Z,8.21
2022-12-07T06:06:23.394Z,7.53
2022-12-07T06:09:29.323Z,7.44
2022-12-07T06:12:39.437Z,7.25
2022-12-07T06:15:45.450Z,7.65
2022-12-07T06:18:50.916Z,7.72
2022-12-07T06:21:56.366Z,7.85
2022-12-07T06:25:07.103Z,8.03
2022-12-07T06:28:14.055Z,7.50
2022-12-07T06:31:19.691Z,7.57
2022-12-07T06:34:25.862Z,7.58
2022-12-07T06:37:31.218Z,8.07
2022-12-07T06:40:36.692Z,8.54
2022-12-07T06:43:43.179Z,8.74
2022-12-07T06:46:48.671Z,8.87
2022-12-07T06:49:54.053Z,8.79
2022-12-07T06:52:59.638Z,9.25
2022-12-07T06:56:05.691Z,8.70
2022-12-07T06:59:11.341Z,8.57
2022-12-07T07:02:16.672Z,8.84
2022-12-07T07:05:23.273Z,8.45
2022-12-07T07:08:28.581Z,7.88
2022-12-07T07:11:34.067Z,8.33
2022-12-07T07:14:39.411Z,8.10
2022-12-07T07:17:44.986Z,8.23
2022-12-07T07:20:50.445Z,7.95
2022-12-07T07:23:55.870Z,8.11
2022-12-07T07:27:01.272Z,7.56
2022-12-07T07:30:07.513Z,8.16
2022-12-07T07:33:13.366Z,8.69
2022-12-07T07:36:18.732Z,8.80
2022-12-07T07:39:24.217Z,8.64
2022-12-07T07:42:29.856Z,8.89
2022-12-07T07:45:35.247Z,9.12
2022-12-07T07:48:40.692Z,8.86
2022-12-07T07:51:46.078Z,8.83
2022-12-07T07:54:51.484Z,8.48
2022-12-07T07:57:57.058Z,8.81
2022-12-07T08:01:07.244Z,8.87
2022-12-07T08:04:12.776Z,9.10
2022-12-07T08:07:18.364Z,8.83
2022-12-07T08:10:23.680Z,7.28
2022-12-07T08:13:31.222Z,6.73
2022-12-07T08:16:37.312Z,7.49
2022-12-07T08:19:42.929Z,7.98
2022-12-07T08:22:48.445Z,7.83
2022-12-07T08:25:53.806Z,8.51
2022-12-07T08:28:59.600Z,8.34
2022-12-07T08:32:09.455Z,8.31
2022-12-07T08:35:15.456Z,8.35
2022-12-07T08:38:20.835Z,8.63
2022-12-07T08:41:26.254Z,8.82
2022-12-07T08:44:31.665Z,8.59
2022-12-07T08:47:38.255Z,8.64
2022-12-07T08:50:49.287Z,7.70
2022-12-07T08:53:56.092Z,6.42
2022-12-07T08:57:01.661Z,7.11
2022-12-07T09:00:07.896Z,7.66
2022-12-07T09:03:13.243Z,7.86
2022-12-07T09:06:18.861Z,8.09
2022-12-07T09:09:24.476Z,8.15
2022-12-07T09:12:29.688Z,8.13
2022-12-07T09:15:35.604Z,8.24
2022-12-07T09:18:40.991Z,8.30
2022-12-07T09:21:46.443Z,8.41
2022-12-07T09:24:51.954Z,8.43
2022-12-07T09:28:00.512Z,8.32
2022-12-07T09:31:24.012Z,8.19
2022-12-07T09:34:32.547Z,8.23
2022-12-07T09:37:38.007Z,8.44
2022-12-07T09:40:44.798Z,8.48
2022-12-07T09:43:52.158Z,8.35
2022-12-07T09:46:58.493Z,8.44
2022-12-07T09:50:08.140Z,8.54
2022-12-07T09:53:17.268Z,8.63
2022-12-07T09:56:23.779Z,8.27
2022-12-07T09:59:33.746Z,6.77
2022-12-07T10:02:44.011Z,6.71
2022-12-07T10:05:51.550Z,7.38
2022-12-07T10:08:56.883Z,7.47
2022-12-07T10:12:20.232Z,7.69
2022-12-07T10:15:25.801Z,7.87
2022-12-07T10:18:32.697Z,7.85
2022-12-07T10:21:38.143Z,7.71
2022-12-07T10:24:44.182Z,7.72
2022-12-07T10:27:59.773Z,7.72
2022-12-07T10:31:19.539Z,7.86
2022-12-07T10:34:26.495Z,7.86
2022-12-07T10:37:42.067Z,8.19
2022-12-07T10:40:47.516Z,8.28
2022-12-07T10:43:54.224Z,8.34
2022-12-07T10:47:07.393Z,8.41
2022-12-07T10:50:30.843Z,8.39
2022-12-07T10:53:52.705Z,8.48
2022-12-07T10:57:03.133Z,8.70
2022-12-07T11:00:15.330Z,8.68
2022-12-07T11:03:32.335Z,8.18
2022-12-07T11:06:41.634Z,8.39
2022-12-07T11:10:08.940Z,8.46
2022-12-07T11:13:29.230Z,8.35
2022-12-07T11:16:42.110Z,8.12
2022-12-07T11:19:55.365Z,7.99
2022-12-07T11:23:04.638Z,8.10
2022-12-07T11:26:16.814Z,7.99
2022-12-07T11:29:36.538Z,8.24
2022-12-07T11:32:53.780Z,8.20
2022-12-07T11:36:12.200Z,8.09
2022-12-07T11:39:24.957Z,7.92
2022-12-07T11:42:32.992Z,7.90
2022-12-07T11:45:40.087Z,7.74
2022-12-07T11:48:48.995Z,7.32
2022-12-07T11:51:58.189Z,7.26
2022-12-07T11:55:04.709Z,7.62
2022-12-07T11:58:17.855Z,7.85
2022-12-07T12:01:34.791Z,8.09
2022-12-07T12:04:47.266Z,8.03
2022-12-07T12:11:31.215Z,7.45
2022-12-07T12:14:46.538Z,7.74
2022-12-07T12:17:59.461Z,7.72
2022-12-07T12:21:06.565Z,7.94
2022-12-07T12:24:16.433Z,7.75
2022-12-07T12:27:24.444Z,7.82
2022-12-07T12:30:34.495Z,7.95
2022-12-07T12:33:40.759Z,7.61
2022-12-07T12:36:48.061Z,7.63
2022-12-07T12:40:07.609Z,7.30
2022-12-07T12:43:26.439Z,7.32
2022-12-07T12:46:50.053Z,6.51
2022-12-07T12:50:15.063Z,7.12
2022-12-07T12:53:25.052Z,6.47
2022-12-07T12:56:37.898Z,6.75
2022-12-07T12:59:44.832Z,6.69
2022-12-07T13:02:54.616Z,6.81
2022-12-07T13:06:17.791Z,6.72
2022-12-07T13:09:25.058Z,7.53
2022-12-07T13:12:30.377Z,6.82
2022-12-07T13:15:37.467Z,6.71
2022-12-07T13:18:43.435Z,6.56
2022-12-07T13:21:48.747Z,6.91
2022-12-07T13:24:58.327Z,7.05
2022-12-07T13:28:10.233Z,6.65
2022-12-07T13:31:34.715Z,6.51
2022-12-07T13:34:40.754Z,6.35
2022-12-07T13:37:46.316Z,6.40
2022-12-07T13:41:03.196Z,6.17
2022-12-07T13:44:11.750Z,5.71
2022-12-07T13:47:19.689Z,5.34
2022-12-07T13:50:27.125Z,5.25
2022-12-07T13:53:32.638Z,5.37
2022-12-07T13:56:40.531Z,4.60
2022-12-07T13:59:46.416Z,4.31
2022-12-07T14:03:00.631Z,4.29
2022-12-07T14:06:09.105Z,4.26
2022-12-07T14:09:21.420Z,3.93
2022-12-07T14:12:27.948Z,4.30
2022-12-07T14:15:35.152Z,4.25
2022-12-07T14:18:42.045Z,3.76
2022-12-07T14:21:47.400Z,3.80
2022-12-07T14:24:52.828Z,3.78
2022-12-07T14:27:59.544Z,3.93
2022-12-07T14:31:16.426Z,4.26
2022-12-07T14:34:26.616Z,5.35
2022-12-07T14:37:32.895Z,5.50
2022-12-07T14:40:40.948Z,4.56
2022-12-07T14:44:07.009Z,4.52
2022-12-07T14:50:39.381Z,5.45
2022-12-07T14:53:53.135Z,4.82
2022-12-07T14:57:03.180Z,5.17
2022-12-07T15:00:11.100Z,5.39
2022-12-07T15:03:16.589Z,4.89
2022-12-07T15:06:26.130Z,4.41
2022-12-07T15:09:31.704Z,5.09
2022-12-07T15:12:37.197Z,4.90
2022-12-07T15:15:42.995Z,4.05
2022-12-07T15:19:04.852Z,5.01
2022-12-07T15:22:14.229Z,5.60
2022-12-07T15:25:19.594Z,5.68
2022-12-07T15:28:25.168Z,5.15
2022-12-07T15:34:56.007Z,4.71
2022-12-07T15:38:01.447Z,4.59
2022-12-07T15:41:06.839Z,4.92
2022-12-07T15:44:31.238Z,4.57
2022-12-07T15:48:02.412Z,5.60
2022-12-07T15:51:11.293Z,5.59
2022-12-07T15:54:18.309Z,5.60
2022-12-07T15:57:25.580Z,5.93
2022-12-07T16:00:35.148Z,5.63
2022-12-07T16:03:40.745Z,6.15
2022-12-07T16:06:46.611Z,6.22
2022-12-07T16:09:52.091Z,6.20
2022-12-07T16:12:57.535Z,6.19
2022-12-07T16:16:05.409Z,5.97
2022-12-07T16:19:12.102Z,6.08
2022-12-07T16:22:17.609Z,6.28
2022-12-07T16:25:23.879Z,6.53
2022-12-07T16:28:30.258Z,6.63
2022-12-07T16:31:36.003Z,6.37
2022-12-07T16:34:41.949Z,6.20
2022-12-07T16:37:47.362Z,6.39
2022-12-07T16:40:53.083Z,6.49
2022-12-07T16:43:58.636Z,6.85
2022-12-07T16:47:03.978Z,6.89
2022-12-07T16:50:10.095Z,6.77
2022-12-07T16:53:16.318Z,6.89
2022-12-07T16:56:21.754Z,6.94
2022-12-07T16:59:27.300Z,6.60
2022-12-07T17:02:32.667Z,5.91
2022-12-07T17:05:41.104Z,6.38
2022-12-07T17:08:46.667Z,5.96
2022-12-07T17:11:52.419Z,6.08
2022-12-07T17:15:15.381Z,6.78
2022-12-07T17:18:22.648Z,6.71
2022-12-07T17:21:32.616Z,6.85
2022-12-07T17:24:38.611Z,7.33
2022-12-07T17:27:46.163Z,6.86
2022-12-07T17:30:51.939Z,6.73
2022-12-07T17:33:57.469Z,6.90
2022-12-07T17:37:03.355Z,6.19
2022-12-07T17:40:11.819Z,6.25
2022-12-07T17:43:17.500Z,5.37
2022-12-07T17:46:22.934Z,5.03
2022-12-07T17:49:28.557Z,5.53
2022-12-07T17:52:56.584Z,6.30
2022-12-07T17:56:27.576Z,6.18
2022-12-07T17:59:27.405Z,5.92
2022-12-07T18:02:33.014Z,6.41
2022-12-07T18:05:39.266Z,6.50
2022-12-07T18:08:44.661Z,6.73
2022-12-07T18:11:50.279Z,6.73
2022-12-07T18:14:55.627Z,6.84
2022-12-07T18:18:01.105Z,6.65
2022-12-07T18:21:09.100Z,6.86
2022-12-07T18:24:16.083Z,6.52
2022-12-07T18:27:21.473Z,6.72
2022-12-07T18:30:49.568Z,6.79
2022-12-07T18:33:56.054Z,7.02
2022-12-07T18:37:01.641Z,7.06
2022-12-07T18:40:08.550Z,7.06
2022-12-07T18:43:13.855Z,6.98
2022-12-07T18:46:21.052Z,5.51
2022-12-07T18:49:26.686Z,4.99
2022-12-07T18:52:32.139Z,5.13
2022-12-07T18:55:38.105Z,5.52
2022-12-07T18:59:03.912Z,5.86
2022-12-07T19:02:11.474Z,5.67
2022-12-07T19:05:17.818Z,5.33
2022-12-07T19:08:23.498Z,5.36
2022-12-07T19:11:47.013Z,5.60
2022-12-07T19:14:54.860Z,5.93
2022-12-07T19:18:00.387Z,6.52
2022-12-07T19:21:06.051Z,6.11
2022-12-07T19:24:11.653Z,6.11
2022-12-07T19:27:17.791Z,6.28
2022-12-07T19:30:23.262Z,6.07
2022-12-07T19:33:30.005Z,6.14
2022-12-07T19:36:35.431Z,6.26
2022-12-07T19:39:41.433Z,6.04
2022-12-07T19:42:46.704Z,6.13
2022-12-07T19:45:52.096Z,6.57
2022-12-07T19:48:57.931Z,6.54
2022-12-07T19:52:05.336Z,4.94
2022-12-07T19:55:11.055Z,4.05
2022-12-07T19:58:16.477Z,4.42
2022-12-07T20:01:21.893Z,4.79
2022-12-07T20:04:28.806Z,5.38
2022-12-07T20:07:39.128Z,5.60
2022-12-07T20:10:45.048Z,5.81
2022-12-07T20:13:50.728Z,5.83
2022-12-07T20:16:56.437Z,5.53
2022-12-07T20:20:01.774Z,5.71
2022-12-07T20:23:07.428Z,6.08
2022-12-07T20:26:14.742Z,5.96
2022-12-07T20:29:21.716Z,4.53
2022-12-07T20:32:27.021Z,3.74
2022-12-07T20:35:32.630Z,4.52
2022-12-07T20:38:38.171Z,4.80
2022-12-07T20:42:01.508Z,5.49
2022-12-07T20:45:09.863Z,5.66
2022-12-07T20:48:16.217Z,5.73
2022-12-07T20:51:21.624Z,5.75
2022-12-07T20:54:27.102Z,5.78
2022-12-07T20:57:32.528Z,5.64
2022-12-07T21:00:38.434Z,5.93
2022-12-07T21:03:44.465Z,5.78
2022-12-07T21:06:49.872Z,5.95
2022-12-07T21:09:55.411Z,6.28
2022-12-07T21:13:00.821Z,6.09
2022-12-07T21:16:09.553Z,6.12
2022-12-07T21:19:15.186Z,6.09
2022-12-07T21:22:20.632Z,5.68
2022-12-07T21:25:25.889Z,5.37
2022-12-07T21:28:31.547Z,5.54
2022-12-07T21:31:37.386Z,5.76
2022-12-07T21:34:42.887Z,5.68
2022-12-07T21:37:48.329Z,5.25
2022-12-07T21:40:53.621Z,5.27
2022-12-07T21:43:59.445Z,6.01
2022-12-07T21:47:05.004Z,5.99
2022-12-07T21:50:11.889Z,5.74
2022-12-07T21:53:17.215Z,6.02
2022-12-07T21:56:24.129Z,6.12
2022-12-07T21:59:29.451Z,6.30
2022-12-07T22:02:35.143Z,6.15
2022-12-07T22:05:40.719Z,6.25
2022-12-07T22:08:46.538Z,6.39
2022-12-07T22:11:52.160Z,5.93
2022-12-07T22:15:10.454Z,4.50
2022-12-07T22:18:15.868Z,4.85
2022-12-07T22:21:21.123Z,5.19
2022-12-07T22:24:26.382Z,5.46
2022-12-07T22:27:31.964Z,5.74
2022-12-07T22:30:37.449Z,5.49
2022-12-07T22:33:43.200Z,5.43
2022-12-07T22:36:48.613Z,5.23
2022-12-07T22:39:53.991Z,5.60
2022-12-07T22:43:01.583Z,5.93
2022-12-07T22:46:07.394Z,5.86
2022-12-07T22:49:12.708Z,5.75
2022-12-07T22:52:18.114Z,5.52
2022-12-07T22:55:23.470Z,5.28
2022-12-07T22:58:28.821Z,4.90
2022-12-07T23:01:34.321Z,4.62
2022-12-07T23:04:39.788Z,4.07
2022-12-07T23:07:45.178Z,4.04
2022-12-07T23:10:50.607Z,4.08
2022-12-07T23:13:55.963Z,3.96
2022-12-07T23:17:01.782Z,3.74
2022-12-07T23:20:08.522Z,3.62
2022-12-07T23:23:13.807Z,3.38
2022-12-07T23:26:19.304Z,3.80
2022-12-07T23:29:24.750Z,3.43
2022-12-07T23:32:30.177Z,3.36
2022-12-07T23:35:35.537Z,3.58
2022-12-07T23:38:41.353Z,4.00
2022-12-07T23:41:46.712Z,3.49
2022-12-07T23:44:51.995Z,3.66
2022-12-07T23:47:57.304Z,3.78
2022-12-07T23:51:02.691Z,4.11
2022-12-07T23:54:08.161Z,4.18
2022-12-07T23:57:13.545Z,3.87
